Time;durP1;ratioP1;P1;durP2;ratioP2;P2;SDS_P1;SDS_P2;PMS_P1;PMS_P2;Temp;Humidity;BMP_temperature;BMP_pressure;BME280_temperature;BME280_humidity;BME280_pressure;Samples;Min_cycle;Max_cycle;Signal;HPM_P1;HPM_P2
2023/04/19 00:01:45;;;;;;;7.20;1.97;;;4.90;99.90;4.10;101276;;;;588324;240;24081;-76
2023/04/19 00:04:13;;;;;;;4.03;2.00;;;4.90;99.90;4.00;101273;;;;588134;240;24034;-77
2023/04/19 00:06:41;;;;;;;3.60;1.43;;;4.90;99.90;4.00;101258;;;;588484;240;24018;-77
2023/04/19 00:09:09;;;;;;;4.10;2.03;;;4.80;99.90;4.00;101263;;;;588157;240;24066;-77
2023/04/19 00:11:37;;;;;;;1.77;1.50;;;4.90;99.90;4.00;101262;;;;588088;239;24068;-77
2023/04/19 00:14:06;;;;;;;3.60;2.40;;;4.90;99.90;4.00;101259;;;;588217;239;24022;-77
2023/04/19 00:16:34;;;;;;;2.30;1.73;;;4.90;99.90;4.10;101259;;;;588157;240;24080;-77
2023/04/19 00:19:01;;;;;;;4.60;2.20;;;4.90;99.90;4.10;101260;;;;588429;240;24036;-76
2023/04/19 00:21:30;;;;;;;7.47;2.30;;;5.00;99.90;4.10;101250;;;;588195;235;24087;-79
2023/04/19 00:23:57;;;;;;;1.77;1.67;;;5.00;99.90;4.10;101250;;;;588121;240;24052;-77
2023/04/19 00:26:26;;;;;;;9.30;2.20;;;5.10;99.90;4.20;101258;;;;588196;240;24056;-76
2023/04/19 00:28:55;;;;;;;3.10;1.90;;;5.10;99.90;4.20;101254;;;;588228;240;24067;-77
2023/04/19 00:31:22;;;;;;;9.07;3.30;;;5.10;99.90;4.20;101244;;;;588281;240;24104;-77
2023/04/19 00:33:50;;;;;;;1.57;1.47;;;5.10;99.90;4.20;101254;;;;588271;240;24055;-77
2023/04/19 00:36:18;;;;;;;4.00;2.73;;;5.20;99.90;4.30;101254;;;;588264;240;24042;-77
2023/04/19 00:38:46;;;;;;;3.03;2.07;;;5.20;99.90;4.30;101244;;;;588238;240;24049;-77
2023/04/19 00:41:14;;;;;;;5.97;1.80;;;5.30;99.90;4.30;101243;;;;588251;240;24021;-77
2023/04/19 00:43:42;;;;;;;4.23;2.03;;;5.30;99.90;4.30;101239;;;;595079;236;24028;-77
2023/04/19 00:46:10;;;;;;;1.30;1.17;;;5.30;99.90;4.40;101235;;;;587820;240;24122;-78
2023/04/19 00:48:38;;;;;;;3.10;1.93;;;5.40;99.90;4.40;101226;;;;587883;240;24097;-76
2023/04/19 00:51:09;;;;;;;3.20;2.13;;;5.40;99.90;4.50;101230;;;;587873;240;24035;-77
2023/04/19 00:53:34;;;;;;;2.67;2.33;;;5.40;99.90;4.50;101233;;;;586998;240;24112;-77
2023/04/19 00:56:05;;;;;;;2.37;2.17;;;5.50;99.90;4.50;101243;;;;589212;240;24087;-76
2023/04/19 00:58:30;;;;;;;4.13;1.43;;;5.50;99.90;4.60;101230;;;;584985;240;24070;-77
2023/04/19 01:01:01;;;;;;;11.10;2.83;;;5.50;99.90;4.60;101227;;;;589048;240;24101;-77
2023/04/19 01:03:29;;;;;;;3.17;2.60;;;5.50;99.90;4.60;101228;;;;588114;240;24063;-78
2023/04/19 01:05:57;;;;;;;2.43;1.93;;;5.50;99.90;4.60;101232;;;;588854;240;24058;-77
2023/04/19 01:08:24;;;;;;;7.27;1.97;;;5.60;99.90;4.70;101225;;;;588855;240;25142;-77
2023/04/19 01:10:52;;;;;;;4.43;2.07;;;5.60;99.90;4.70;101218;;;;588813;240;25075;-77
2023/04/19 01:13:20;;;;;;;4.07;2.30;;;5.50;99.90;4.60;101217;;;;588740;240;24092;-78
2023/04/19 01:15:50;;;;;;;3.63;1.77;;;5.50;99.90;4.60;101227;;;;588472;239;24067;-77
2023/04/19 01:18:18;;;;;;;3.97;2.17;;;5.40;99.90;4.50;101213;;;;588464;240;24313;-75
2023/04/19 01:20:45;;;;;;;4.47;1.80;;;5.40;99.90;4.40;101216;;;;588153;240;24116;-77
2023/04/19 01:23:13;;;;;;;1.47;1.30;;;5.40;99.90;4.30;101206;;;;588083;240;24031;-77
2023/04/19 01:25:41;;;;;;;3.80;2.13;;;5.20;99.90;4.20;101201;;;;588242;240;24063;-76
2023/04/19 01:28:08;;;;;;;2.23;2.07;;;5.00;99.90;4.10;101203;;;;597383;239;24114;-77
2023/04/19 01:30:40;;;;;;;6.40;1.87;;;5.00;99.90;4.00;101199;;;;588213;240;24057;-76
2023/04/19 01:33:05;;;;;;;4.07;1.77;;;5.00;99.90;4.00;101196;;;;596969;240;24048;-76
2023/04/19 01:35:33;;;;;;;5.50;2.23;;;4.90;99.90;3.90;101187;;;;588004;240;24056;-76
2023/04/19 01:38:00;;;;;;;5.60;2.13;;;4.70;99.90;3.80;101189;;;;587889;240;26260;-77
2023/04/19 01:40:28;;;;;;;4.67;2.73;;;4.70;99.90;3.70;101200;;;;587867;240;24070;-77
2023/04/19 01:42:56;;;;;;;5.93;3.00;;;4.70;99.90;3.70;101192;;;;587895;240;24031;-76
2023/04/19 01:45:24;;;;;;;6.10;2.60;;;4.60;99.90;3.60;101193;;;;587858;240;24084;-77
2023/04/19 01:47:54;;;;;;;5.73;2.80;;;4.50;99.90;3.60;101191;;;;588318;240;24076;-76
2023/04/19 01:50:21;;;;;;;3.13;2.30;;;4.50;99.90;3.50;101189;;;;588110;240;24092;-76
2023/04/19 01:52:49;;;;;;;7.67;2.67;;;4.50;99.90;3.50;101183;;;;588210;240;24079;-75
2023/04/19 01:55:17;;;;;;;4.37;2.50;;;4.40;99.90;3.40;101181;;;;588314;240;24092;-75
2023/04/19 01:57:45;;;;;;;4.50;2.00;;;4.30;99.90;3.40;101186;;;;588133;240;24063;-77
2023/04/19 02:00:16;;;;;;;10.63;2.43;;;4.30;99.90;3.30;101176;;;;588247;240;24066;-76
2023/04/19 02:02:40;;;;;;;5.73;2.17;;;4.30;99.90;3.30;101175;;;;587834;240;24036;-76
2023/04/19 02:05:12;;;;;;;7.07;3.10;;;4.30;99.90;3.30;101173;;;;588138;240;24033;-77
2023/04/19 02:07:39;;;;;;;3.17;1.93;;;4.20;99.90;3.30;101169;;;;588853;240;24089;-76
2023/04/19 02:10:04;;;;;;;3.67;2.40;;;4.20;99.90;3.20;101176;;;;589148;240;24050;-76
2023/04/19 02:12:32;;;;;;;5.30;2.40;;;4.10;99.90;3.20;101175;;;;588962;240;24073;-77
2023/04/19 02:15:03;;;;;;;7.20;3.10;;;4.10;99.90;3.20;101170;;;;589019;240;24179;-75
2023/04/19 02:17:28;;;;;;;7.00;2.53;;;4.10;99.90;3.20;101163;;;;588478;240;24122;-77
2023/04/19 02:19:56;;;;;;;6.33;1.83;;;4.10;99.90;3.20;101164;;;;588769;240;24031;-77
2023/04/19 02:22:24;;;;;;;8.93;3.43;;;4.10;99.90;3.20;101165;;;;588271;240;24100;-77
2023/04/19 02:24:54;;;;;;;6.73;3.37;;;4.10;99.90;3.10;101155;;;;588309;240;24053;-79
2023/04/19 02:27:19;;;;;;;5.77;3.37;;;4.10;99.90;3.10;101163;;;;588084;240;24061;-76
2023/04/19 02:29:47;;;;;;;7.83;4.03;;;4.10;99.90;3.10;101164;;;;588267;240;24048;-78
2023/04/19 02:32:15;;;;;;;5.67;3.70;;;4.00;99.90;3.10;101156;;;;588171;240;24082;-76
2023/04/19 02:34:43;;;;;;;7.17;3.80;;;4.00;99.90;3.10;101154;;;;588603;240;24046;-76
2023/04/19 02:37:11;;;;;;;7.40;4.03;;;4.00;99.90;3.10;101163;;;;588199;240;24027;-77
2023/04/19 02:39:41;;;;;;;12.93;4.30;;;4.00;99.90;3.10;101162;;;;588177;240;24052;-76
2023/04/19 02:42:07;;;;;;;9.70;4.50;;;4.00;99.90;3.10;101154;;;;588100;240;24033;-76
2023/04/19 02:44:35;;;;;;;8.10;3.90;;;4.00;99.90;3.10;101150;;;;587881;240;24048;-77
2023/04/19 02:47:06;;;;;;;8.77;4.57;;;4.00;99.90;3.10;101139;;;;587952;240;24059;-76
2023/04/19 02:49:34;;;;;;;8.47;4.13;;;4.00;99.90;3.10;101153;;;;588061;240;24044;-77
2023/04/19 02:51:59;;;;;;;7.10;4.23;;;4.00;99.90;3.10;101141;;;;597248;240;24079;-77
2023/04/19 02:54:32;;;;;;;8.23;4.03;;;4.00;99.90;3.10;101137;;;;588289;240;24040;-77
2023/04/19 02:56:56;;;;;;;11.70;4.47;;;4.00;99.90;3.10;101128;;;;588245;240;25076;-77
2023/04/19 02:59:24;;;;;;;7.87;4.10;;;4.00;99.90;3.00;101125;;;;588000;240;24044;-77
2023/04/19 03:01:52;;;;;;;7.63;4.30;;;3.90;99.90;3.00;101126;;;;587908;240;24090;-77
2023/04/19 03:04:20;;;;;;;6.70;3.93;;;4.00;99.90;3.10;101126;;;;587985;240;24041;-76
2023/04/19 03:06:48;;;;;;;9.03;4.30;;;3.90;99.90;3.00;101131;;;;587903;240;24104;-76
2023/04/19 03:09:16;;;;;;;6.53;4.00;;;3.90;99.90;3.00;101122;;;;587903;240;24027;-77
2023/04/19 03:11:44;;;;;;;7.90;4.47;;;3.90;99.90;3.00;101124;;;;588004;240;24039;-77
2023/04/19 03:14:12;;;;;;;10.53;4.20;;;3.90;99.90;3.00;101127;;;;587882;239;24080;-77
2023/04/19 03:16:40;;;;;;;7.00;4.07;;;3.90;99.90;3.00;101123;;;;587975;240;24080;-77
2023/04/19 03:19:08;;;;;;;5.90;4.53;;;3.90;99.90;3.00;101129;;;;589091;240;24053;-79
2023/04/19 03:21:36;;;;;;;9.07;4.30;;;3.90;99.90;3.00;101120;;;;589028;240;24169;-76
2023/04/19 03:24:03;;;;;;;8.47;4.57;;;3.90;99.90;3.00;101122;;;;589349;239;24023;-77
2023/04/19 03:26:31;;;;;;;8.40;4.03;;;3.90;99.90;3.00;101115;;;;589337;240;24120;-78
2023/04/19 03:29:00;;;;;;;7.73;4.10;;;3.90;99.90;2.90;101119;;;;589203;240;24099;-76
2023/04/19 03:31:27;;;;;;;9.23;4.13;;;3.90;99.90;3.00;101125;;;;589122;239;24031;-76
2023/04/19 03:33:55;;;;;;;7.77;4.37;;;3.90;99.90;3.00;101119;;;;588886;240;24056;-79
2023/04/19 03:36:24;;;;;;;7.13;5.03;;;3.90;99.90;3.00;101113;;;;588752;240;24063;-76
2023/04/19 03:38:54;;;;;;;7.60;4.27;;;3.90;99.90;3.00;101115;;;;588553;240;24047;-79
2023/04/19 03:41:25;;;;;;;13.90;5.07;;;3.90;99.90;3.10;101114;;;;588719;240;24075;-77
2023/04/19 03:43:54;;;;;;;4.63;4.10;;;4.00;99.90;3.10;101114;;;;588687;240;24073;-77
2023/04/19 03:46:22;;;;;;;11.80;5.50;;;4.00;99.90;3.10;101106;;;;588656;240;24072;-76
2023/04/19 03:48:50;;;;;;;7.07;4.07;;;4.00;99.90;3.10;101116;;;;588712;240;24024;-77
2023/04/19 03:51:17;;;;;;;4.90;4.00;;;4.00;99.90;3.20;101095;;;;588161;240;24082;-79
2023/04/19 03:53:45;;;;;;;6.40;4.37;;;4.10;99.90;3.20;101111;;;;588095;240;24028;-77
2023/04/19 03:56:13;;;;;;;6.53;4.43;;;4.10;99.90;3.20;101103;;;;587780;235;24027;-77
2023/04/19 03:58:41;;;;;;;5.73;3.97;;;4.10;99.90;3.20;101106;;;;587922;240;24259;-76
2023/04/19 04:01:09;;;;;;;8.63;4.20;;;4.10;99.90;3.30;101107;;;;587876;240;24080;-76
2023/04/19 04:03:37;;;;;;;8.30;4.47;;;4.20;99.90;3.40;101099;;;;587542;240;24124;-77
2023/04/19 04:06:06;;;;;;;9.45;4.82;;;4.40;99.90;3.60;101103;;;;582794;240;34949;-77
2023/04/19 04:08:34;;;;;;;8.53;2.97;;;4.40;99.90;3.70;101107;;;;587817;240;24114;-76
2023/04/19 04:11:01;;;;;;;3.57;2.40;;;4.70;99.90;3.80;101101;;;;587924;240;24052;-77
2023/04/19 04:13:29;;;;;;;7.90;2.80;;;4.70;99.90;4.00;101101;;;;587842;240;24058;-79
2023/04/19 04:15:57;;;;;;;4.47;3.62;;;4.90;99.90;4.10;101091;;;;582872;240;34984;-79
2023/04/19 04:18:27;;;;;;;4.53;3.00;;;5.00;99.90;4.20;101084;;;;587870;240;24040;-79
2023/04/19 04:20:53;;;;;;;12.87;3.20;;;5.10;99.90;4.30;101089;;;;587951;240;24053;-76
2023/04/19 04:23:22;;;;;;;2.80;2.30;;;5.30;99.90;4.40;101107;;;;587874;240;24048;-79
2023/04/19 04:26:03;;;;;;;7.93;3.00;;;5.30;99.90;4.40;101084;;;;584840;240;24133;-76
2023/04/19 04:28:28;;;;;;;3.97;2.70;;;5.40;99.90;4.50;101087;;;;597327;240;25133;-76
2023/04/19 04:30:59;;;;;;;8.03;2.63;;;5.50;99.90;4.60;101090;;;;589611;240;24071;-77
2023/04/19 04:33:29;;;;;;;4.53;2.40;;;5.50;99.90;4.60;101088;;;;589259;240;24032;-77
2023/04/19 04:35:57;;;;;;;6.67;2.50;;;5.50;99.90;4.70;101089;;;;589061;238;24053;-77
2023/04/19 04:38:26;;;;;;;4.43;2.70;;;5.60;99.90;4.80;101093;;;;589028;240;24023;-77
2023/04/19 04:40:57;;;;;;;2.77;1.60;;;5.70;99.90;4.90;101100;;;;588603;239;24089;-77
2023/04/19 04:43:21;;;;;;;5.57;2.90;;;5.70;99.90;4.90;101094;;;;597867;239;24084;-77
2023/04/19 04:45:49;;;;;;;2.73;2.20;;;5.80;99.90;5.00;101081;;;;588490;240;24055;-77
2023/04/19 04:48:20;;;;;;;5.37;2.40;;;6.00;99.90;5.10;101088;;;;588654;240;24083;-78
2023/04/19 04:50:45;;;;;;;3.43;2.17;;;6.00;99.90;5.30;101085;;;;587773;240;24031;-78
2023/04/19 04:53:13;;;;;;;2.17;1.23;;;6.10;99.90;5.40;101103;;;;597447;239;25139;-77
2023/04/19 04:55:41;;;;;;;2.87;2.27;;;6.20;99.90;5.40;101102;;;;588341;240;24104;-76
2023/04/19 04:58:09;;;;;;;8.63;2.70;;;6.30;99.90;5.40;101105;;;;588163;240;24051;-76
2023/04/19 05:00:37;;;;;;;3.47;2.30;;;6.30;99.90;5.40;101107;;;;588118;240;24067;-77
2023/04/19 05:03:05;;;;;;;7.63;2.80;;;6.30;99.90;5.40;101106;;;;588207;240;24075;-77
2023/04/19 05:05:32;;;;;;;5.13;3.30;;;6.30;99.90;5.40;101093;;;;588009;240;25077;-76
2023/04/19 05:08:00;;;;;;;3.63;2.60;;;6.30;99.90;5.40;101104;;;;587979;240;24092;-75
2023/04/19 05:10:28;;;;;;;5.70;2.30;;;6.30;99.90;5.40;101101;;;;587793;240;24072;-77
2023/04/19 05:12:57;;;;;;;7.57;2.40;;;6.30;99.90;5.40;101094;;;;588224;240;24102;-76
2023/04/19 05:15:25;;;;;;;1.90;1.63;;;6.30;99.90;5.50;101105;;;;587755;240;24087;-76
2023/04/19 05:17:53;;;;;;;3.57;1.97;;;6.30;99.90;5.50;101102;;;;587881;240;24056;-77
2023/04/19 05:20:20;;;;;;;3.43;1.77;;;9.00;99.90;5.60;101105;;;;588196;240;24022;-77
2023/04/19 05:22:48;;;;;;;3.07;2.30;;;6.40;99.90;5.60;101105;;;;588223;240;24079;-76
2023/04/19 05:25:16;;;;;;;3.33;2.37;;;6.50;99.90;5.70;101103;;;;588253;240;24017;-77
2023/04/19 05:27:44;;;;;;;5.70;2.53;;;6.70;99.90;5.90;101092;;;;587848;240;24077;-78
2023/04/19 05:30:13;;;;;;;3.93;1.70;;;6.80;99.90;6.00;101096;;;;587786;240;29408;-76
2023/04/19 05:32:41;;;;;;;2.13;1.60;;;6.90;99.90;6.10;101086;;;;587867;240;24016;-77
2023/04/19 05:35:12;;;;;;;4.80;2.00;;;6.90;99.90;6.00;101085;;;;587807;240;24059;-78
2023/04/19 05:37:37;;;;;;;4.00;2.37;;;6.90;99.90;6.10;101092;;;;587176;240;24048;-78
2023/04/19 05:40:09;;;;;;;5.37;2.33;;;6.90;99.90;6.10;101087;;;;587831;240;24057;-77
2023/04/19 05:42:33;;;;;;;5.53;2.10;;;6.90;99.90;6.20;101086;;;;589032;240;24084;-77
2023/04/19 05:45:01;;;;;;;6.30;2.30;;;7.00;99.90;6.30;101083;;;;589013;240;24016;-78
2023/04/19 05:47:28;;;;;;;5.03;2.10;;;7.20;99.90;6.50;101095;;;;588610;239;24102;-79
2023/04/19 05:49:56;;;;;;;2.63;1.47;;;7.50;99.90;6.80;101083;;;;588654;239;24016;-77
2023/04/19 05:52:24;;;;;;;7.60;2.13;;;7.50;99.90;7.70;101078;;;;588328;240;24221;-77
2023/04/19 05:54:52;;;;;;;7.20;2.50;;;8.20;99.90;8.80;101092;;;;588826;240;24096;-76
2023/04/19 05:57:23;;;;;;;6.30;2.43;;;9.30;99.90;9.60;101088;;;;588793;239;24100;-78
2023/04/19 05:59:48;;;;;;;3.60;2.87;;;10.10;99.90;10.30;101085;;;;597243;237;24087;-78
2023/04/19 06:02:20;;;;;;;3.77;2.00;;;10.90;99.90;11.10;101091;;;;588305;240;24058;-78
2023/04/19 06:04:44;;;;;;;4.67;2.40;;;11.70;99.90;11.80;101077;;;;580452;243;24101;-77
2023/04/19 06:07:12;;;;;;;4.27;2.20;;;12.40;99.90;12.60;101082;;;;589926;238;24106;-77
2023/04/19 06:09:40;;;;;;;3.63;1.90;;;13.20;99.90;13.20;101095;;;;587077;241;24034;-77
2023/04/19 06:12:08;;;;;;;3.43;2.53;;;13.80;99.90;13.40;101085;;;;588247;240;24116;-78
2023/04/19 06:14:36;;;;;;;4.47;2.80;;;14.10;99.90;13.30;101080;;;;588185;240;24047;-79
2023/04/19 06:17:04;;;;;;;6.07;2.87;;;14.10;99.90;12.60;101070;;;;587970;239;24071;-78
2023/04/19 06:19:32;;;;;;;3.63;3.23;;;13.70;99.90;11.80;101082;;;;588110;240;24047;-79
2023/04/19 06:22:00;;;;;;;3.87;2.40;;;13.00;99.90;11.60;101067;;;;587958;240;24083;-77
2023/04/19 06:24:28;;;;;;;10.33;2.20;;;12.60;99.90;11.80;101053;;;;588577;240;24046;-77
2023/04/19 06:26:59;;;;;;;3.93;2.20;;;12.60;99.90;11.80;101057;;;;588405;240;24051;-77
2023/04/19 06:29:24;;;;;;;8.90;2.60;;;12.60;99.90;11.30;101066;;;;591542;239;24089;-77
2023/04/19 06:31:52;;;;;;;4.40;2.50;;;12.30;99.90;10.80;101073;;;;596860;235;24061;-77
2023/04/19 06:34:20;;;;;;;4.17;2.20;;;11.50;99.90;10.40;101078;;;;598124;240;24073;-78
2023/04/19 06:36:48;;;;;;;6.00;2.53;;;11.40;99.90;10.10;101078;;;;588979;240;24077;-78
2023/04/19 06:39:16;;;;;;;4.87;2.83;;;11.10;99.90;9.90;101088;;;;588919;240;24043;-80
2023/04/19 06:41:44;;;;;;;5.43;2.53;;;10.80;99.90;9.70;101095;;;;588809;240;24025;-77
2023/04/19 06:44:12;;;;;;;3.43;1.90;;;10.50;99.90;9.50;101092;;;;588416;240;24086;-77
2023/04/19 06:46:40;;;;;;;6.73;3.23;;;10.40;99.90;9.30;101102;;;;583396;240;34913;-78
2023/04/19 06:49:08;;;;;;;2.73;2.53;;;10.20;99.90;9.30;101106;;;;589345;240;24040;-77
2023/04/19 06:51:36;;;;;;;4.60;2.50;;;9.60;99.90;9.40;101128;;;;590108;240;24167;-78
2023/04/19 06:54:04;;;;;;;4.87;2.90;;;10.20;99.90;9.50;101108;;;;592633;239;35001;-78
2023/04/19 06:56:47;;;;;;;5.43;2.93;;;10.30;99.90;9.50;101096;;;;589788;240;24089;-79
2023/04/19 06:59:17;;;;;;;3.30;2.67;;;10.30;99.90;9.30;101103;;;;585658;240;24059;-78
2023/04/19 07:01:43;;;;;;;6.03;2.33;;;10.20;99.90;9.40;101131;;;;588591;240;24035;-78
2023/04/19 07:04:10;;;;;;;11.00;3.20;;;10.20;99.90;9.40;101114;;;;588931;240;24098;-79
2023/04/19 07:06:38;;;;;;;3.17;2.17;;;10.20;99.90;9.60;101095;;;;588541;240;24046;-78
2023/04/19 07:09:07;;;;;;;6.60;2.20;;;10.50;99.90;9.80;101106;;;;588286;238;24084;-77
2023/04/19 07:11:35;;;;;;;6.33;2.50;;;10.50;99.90;9.80;101111;;;;597634;239;24031;-78
2023/04/19 07:14:04;;;;;;;4.00;2.17;;;10.60;99.90;9.80;101096;;;;588212;239;24047;-78
2023/04/19 07:16:32;;;;;;;5.93;2.20;;;10.60;99.90;10.00;101091;;;;588334;240;24090;-78
2023/04/19 07:19:00;;;;;;;6.87;2.07;;;10.80;99.90;10.50;101117;;;;588169;240;24024;-80
2023/04/19 07:21:32;;;;;;;5.57;2.20;;;11.20;99.90;11.50;101132;;;;588106;240;24099;-78
2023/04/19 07:23:56;;;;;;;5.73;2.87;;;11.90;99.90;12.40;101104;;;;588237;240;24051;-77
2023/04/19 07:26:24;;;;;;;5.83;2.43;;;12.90;99.90;13.20;101101;;;;588087;240;24050;-77
2023/04/19 07:28:52;;;;;;;4.77;2.57;;;14.40;99.30;13.80;101106;;;;588057;240;24032;-78
2023/04/19 07:31:24;;;;;;;6.43;2.63;;;15.30;98.40;14.70;101107;;;;588232;240;24010;-77
2023/04/19 07:33:49;;;;;;;5.47;2.50;;;15.20;98.00;15.90;101105;;;;597222;240;24141;-77
2023/04/19 07:36:17;;;;;;;5.50;2.20;;;16.30;94.40;17.20;101106;;;;588284;240;24022;-78
2023/04/19 07:38:45;;;;;;;11.37;2.87;;;17.60;90.70;18.50;101084;;;;588206;240;24032;-78
2023/04/19 07:41:16;;;;;;;4.27;2.97;;;18.90;84.20;19.00;101081;;;;588229;240;24027;-78
2023/04/19 07:43:41;;;;;;;5.33;2.00;;;19.70;77.40;19.50;101077;;;;587935;240;23059;-77
2023/04/19 07:46:16;;;;;;;11.50;3.97;;;20.30;69.90;19.20;101074;;;;588278;240;24029;-77
2023/04/19 07:48:41;;;;;;;13.73;3.70;;;19.70;69.10;18.40;101078;;;;588118;240;24024;-76
2023/04/19 07:51:10;;;;;;;6.40;2.43;;;18.60;69.60;17.20;101087;;;;588397;240;23038;-77
2023/04/19 07:53:42;;;;;;;28.03;5.10;;;17.70;72.50;16.30;101088;;;;587788;240;24021;-75
2023/04/19 07:56:07;;;;;;;3.73;2.33;;;17.60;72.40;16.20;101067;;;;588254;240;24058;-77
2023/04/19 07:58:38;;;;;;;4.70;2.83;;;17.20;74.80;16.80;101088;;;;587856;240;24027;-77
2023/04/19 08:01:03;;;;;;;7.57;2.60;;;17.50;73.90;16.00;101083;;;;587531;240;24127;-79
2023/04/19 08:03:31;;;;;;;5.17;2.57;;;16.10;74.30;14.70;101084;;;;597245;238;25078;-78
2023/04/19 08:06:04;;;;;;;3.33;2.37;;;15.40;77.50;14.10;101075;;;;589457;240;24030;-77
2023/04/19 08:08:31;;;;;;;6.90;2.40;;;15.30;77.40;13.30;101070;;;;589003;240;24035;-77
2023/04/19 08:11:00;;;;;;;4.90;2.53;;;14.50;80.30;12.50;101083;;;;588745;240;24033;-77
2023/04/19 08:13:27;;;;;;;5.13;2.47;;;13.70;83.10;11.80;101070;;;;588438;240;24060;-77
2023/04/19 08:15:55;;;;;;;5.20;2.10;;;12.40;88.00;11.20;101078;;;;585336;240;24135;-77
2023/04/19 08:18:23;;;;;;;2.70;1.87;;;12.30;88.60;10.70;101077;;;;588300;240;24010;-77
2023/04/19 08:20:50;;;;;;;3.93;2.20;;;11.80;90.70;10.50;101083;;;;585065;240;24032;-77
2023/04/19 08:23:18;;;;;;;11.43;2.27;;;11.40;92.00;10.00;101079;;;;588214;239;24045;-78
2023/04/19 08:25:46;;;;;;;2.20;2.00;;;10.50;93.90;9.40;101108;;;;588009;240;24051;-77
2023/04/19 08:28:14;;;;;;;5.27;2.43;;;10.40;94.10;8.90;101087;;;;588189;240;24067;-78
2023/04/19 08:30:42;;;;;;;5.47;2.30;;;9.60;97.80;8.60;101084;;;;588115;240;24045;-79
2023/04/19 08:33:10;;;;;;;2.10;1.30;;;9.30;99.90;8.40;101089;;;;588605;240;24056;-77
2023/04/19 08:35:40;;;;;;;4.53;1.83;;;9.20;99.90;8.00;101100;;;;588641;240;24027;-80
2023/04/19 08:38:06;;;;;;;20.23;3.60;;;8.70;99.90;7.70;101083;;;;588647;240;24051;-77
2023/04/19 08:40:34;;;;;;;6.50;1.70;;;8.60;99.90;7.60;101091;;;;597613;239;24037;-77
2023/04/19 08:43:07;;;;;;;6.97;2.00;;;8.20;99.90;7.30;101126;;;;588030;240;24091;-77
2023/04/19 08:45:32;;;;;;;6.97;1.90;;;7.90;99.90;7.00;101092;;;;584435;240;24076;-79
2023/04/19 08:48:00;;;;;;;8.20;3.47;;;7.60;99.90;6.70;101081;;;;583164;240;34931;-77
2023/04/19 08:50:28;;;;;;;7.55;3.85;;;7.20;99.90;6.40;101084;;;;582999;240;34961;-78
2023/04/19 08:52:57;;;;;;;8.43;2.93;;;6.90;99.90;6.10;101085;;;;588156;240;24032;-77
2023/04/19 08:55:25;;;;;;;8.45;3.67;;;6.80;99.90;5.90;101089;;;;583139;240;35041;-79
2023/04/19 08:57:53;;;;;;;4.87;2.70;;;6.60;99.90;5.80;101095;;;;584791;240;24056;-79
2023/04/19 09:00:21;;;;;;;2.57;2.23;;;6.40;99.90;5.70;101080;;;;588367;240;24055;-79
2023/04/19 09:02:49;;;;;;;3.37;2.57;;;6.50;99.90;5.70;101084;;;;577165;240;24137;-79
2023/04/19 09:05:17;;;;;;;5.17;2.03;;;6.40;99.90;5.80;101095;;;;572846;246;24117;-77
2023/04/19 09:07:49;;;;;;;2.33;2.13;;;6.50;99.90;5.70;101078;;;;574053;245;24114;-78
2023/04/19 09:10:13;;;;;;;2.87;2.27;;;6.40;99.90;5.60;101072;;;;585466;240;24087;-81
2023/04/19 09:12:41;;;;;;;5.90;2.47;;;6.40;99.90;5.60;101075;;;;585599;240;24125;-79
2023/04/19 09:15:12;;;;;;;2.33;2.13;;;6.30;99.90;5.50;101083;;;;585787;240;24071;-80
2023/04/19 09:17:37;;;;;;;2.67;2.47;;;6.90;99.90;5.40;101081;;;;587257;240;24104;-78
2023/04/19 09:20:09;;;;;;;2.30;2.07;;;6.10;99.90;5.30;101070;;;;579532;243;24065;-77
2023/04/19 09:22:33;;;;;;;7.90;3.03;;;6.10;99.90;5.20;101062;;;;569500;247;24162;-80
2023/04/19 09:25:01;;;;;;;4.93;2.77;;;5.90;99.90;5.10;101069;;;;581001;243;24066;-79
2023/04/19 09:27:32;;;;;;;3.10;2.17;;;5.90;99.90;5.00;101078;;;;586483;240;24069;-80
2023/04/19 09:29:57;;;;;;;3.73;2.70;;;5.70;99.90;4.80;101066;;;;585552;240;24079;-79
2023/04/19 09:32:28;;;;;;;4.23;2.40;;;5.40;99.90;4.60;101074;;;;586836;240;24082;-81
2023/04/19 09:35:02;;;;;;;3.47;2.93;;;5.50;99.90;4.40;101055;;;;580175;243;24150;-80
2023/04/19 09:37:31;;;;;;;5.77;3.63;;;5.10;99.90;4.30;101049;;;;571375;247;24087;-75
2023/04/19 09:39:55;;;;;;;7.33;3.87;;;5.10;99.90;4.30;101052;;;;582395;243;29353;-78
2023/04/19 09:42:23;;;;;;;5.97;3.60;;;5.00;99.90;4.20;101055;;;;588027;240;24054;-79
2023/04/19 09:45:03;;;;;;;8.87;3.87;;;5.00;99.90;4.20;101043;;;;587942;240;24088;-75
2023/04/19 09:47:33;;;;;;;8.37;5.23;;;5.00;99.90;4.10;101056;;;;580445;243;24039;-76
2023/04/19 09:50:09;;;;;;;10.10;6.37;;;4.80;99.90;4.00;101043;;;;571061;247;24101;-74
2023/04/19 09:52:41;;;;;;;10.13;6.10;;;4.90;99.90;3.90;101043;;;;582273;243;24084;-74
2023/04/19 09:55:09;;;;;;;7.73;6.00;;;4.80;99.90;3.90;101034;;;;587141;240;24093;-76
2023/04/19 09:57:35;;;;;;;11.17;6.03;;;4.70;99.90;3.80;101056;;;;579531;246;24107;-75
2023/04/19 10:00:07;;;;;;;9.77;6.07;;;4.70;99.90;3.80;101059;;;;574708;246;24116;-77
2023/04/19 10:02:33;;;;;;;9.17;5.77;;;4.60;99.90;3.70;101055;;;;574698;246;24067;-79
2023/04/19 10:05:05;;;;;;;10.60;5.73;;;4.50;99.90;3.60;101074;;;;574291;246;24090;-82
2023/04/19 10:07:33;;;;;;;17.00;6.47;;;4.40;99.90;3.60;101055;;;;573740;246;24184;-80
2023/04/19 10:10:01;;;;;;;9.67;6.37;;;4.40;99.90;3.50;101061;;;;573913;246;24074;-79
2023/04/19 10:12:26;;;;;;;14.00;6.50;;;4.40;99.90;3.50;101064;;;;578148;246;25141;-79
2023/04/19 10:14:57;;;;;;;19.30;6.03;;;4.40;99.90;3.50;101043;;;;569952;246;24096;-80
2023/04/19 10:17:22;;;;;;;10.53;6.30;;;4.40;99.90;3.50;101072;;;;573173;246;24193;-78
2023/04/19 10:19:51;;;;;;;16.87;7.47;;;4.40;99.90;3.50;101075;;;;574082;246;24116;-78
2023/04/19 10:22:19;;;;;;;15.80;6.70;;;4.30;99.90;3.40;101070;;;;574399;246;24072;-77
2023/04/19 10:25:11;;;;;;;13.60;7.10;;;4.30;99.90;3.40;101030;;;;574183;246;24064;-77
2023/04/19 10:27:39;;;;;;;0.10;0.10;;;4.30;99.90;3.40;101045;;;;578824;246;24109;-77
2023/04/19 10:30:12;;;;;;;0.10;0.10;;;4.30;99.90;3.40;101022;;;;575975;246;24028;-81
2023/04/19 10:32:50;;;;;;;0.00;0.00;;;4.30;99.90;3.40;101014;;;;575158;246;24025;-79
2023/04/19 10:35:25;;;;;;;0.10;0.10;;;4.30;99.90;3.40;101014;;;;575576;246;24119;-80
2023/04/19 10:38:11;;;;;;;0.00;0.00;;;4.30;99.90;3.40;101032;;;;570378;246;37049;-79
2023/04/19 10:40:59;;;;;;;0.00;0.00;;;4.30;99.90;3.40;101018;;;;570565;246;34908;-78
2023/04/19 10:43:28;;;;;;;0.00;0.00;;;4.30;99.90;3.40;101023;;;;574793;246;24102;-79
2023/04/19 10:45:57;;;;;;;0.00;0.00;;;4.30;99.90;3.50;101033;;;;574949;244;24089;-78
2023/04/19 10:48:32;;;;;;;0.10;0.10;;;4.40;99.90;3.50;101026;;;;574869;246;24072;-79
2023/04/19 10:51:03;;;;;;;0.03;0.03;;;4.30;99.90;3.50;101025;;;;575269;246;24072;-79
2023/04/19 10:53:45;;;;;;;0.00;0.00;;;4.40;99.90;3.50;101041;;;;574757;246;24076;-79
2023/04/19 10:56:13;;;;;;;0.00;0.00;;;4.40;99.90;3.50;101041;;;;578369;246;24111;-80
2023/04/19 10:59:13;;;;;;;0.10;0.10;;;4.40;99.90;3.60;101043;;;;574759;246;24097;-78
2023/04/19 11:01:50;;;;;;;0.10;0.10;;;4.40;99.90;3.60;101023;;;;574973;246;24041;-80
2023/04/19 11:04:26;;;;;;;0.10;0.10;;;4.50;99.90;3.70;101024;;;;574202;246;24096;-78
2023/04/19 11:06:51;;;;;;;0.10;0.10;;;4.50;99.90;3.70;101038;;;;576404;246;24046;-79
2023/04/19 11:09:31;;;;;;;0.00;0.00;;;4.60;99.90;3.70;101026;;;;574646;246;24107;-78
2023/04/19 11:12:09;;;;;;;0.10;0.10;;;4.60;99.90;3.80;101026;;;;578781;242;24079;-78
2023/04/19 11:14:51;;;;;;;0.10;0.10;;;4.60;99.90;3.80;101029;;;;574317;246;24121;-80
2023/04/19 11:17:26;;;;;;;0.00;0.00;;;4.60;99.90;3.80;101035;;;;581573;246;24102;-80
2023/04/19 11:20:05;;;;;;;0.10;0.10;;;4.70;99.90;3.90;101040;;;;574414;246;24182;-79
2023/04/19 11:22:33;;;;;;;0.10;0.10;;;4.70;99.90;4.00;101043;;;;574610;246;24074;-80
2023/04/19 11:25:16;;;;;;;0.10;0.10;;;4.80;99.90;4.00;101031;;;;580591;246;24070;-81
2023/04/19 11:27:47;;;;;;;0.10;0.10;;;4.90;99.90;4.10;101028;;;;573821;246;24211;-80
2023/04/19 11:30:18;;;;;;;0.10;0.10;;;4.90;99.90;4.10;101025;;;;572718;246;24139;-80